Latest Weather Observations for Morawa Airport

IDW60801

Issued at 10:04 pm WST Monday 25 January 2021 (issued every 10 minutes, with the page automatically refreshed every 10 minutes)

About weather observations | Map of weather stations | Latest weather observations for WA | Other Formats
Station Details ID: 008296 Name: MORAWA AIRPORT Lat: -29.20 Lon: 116.02 Height: 271.4 m
Data from the previous 72 hours. | See also: Recent months at Morawa Airport
Date/Time
WST
Temp
°C
App
Temp
°C
Dew
Point
°C
Rel
Hum
%
Delta-T
°C
Wind Press
QNH
hPa
Press
MSL
hPa
Rain since
9am
mm
Dir  Spd
km/h
Gust
km/h
Spd
kts
Gust
kts
25/10:00pm 20.7 17.3 10.5 52 5.6 SW 19 26 10 14 1009.7 1007.8 0.0
25/09:30pm 21.4 17.7 10.3 49 6.1 SW 20 30 11 16 1009.5 1007.7 0.0
25/09:00pm 22.1 19.3 11.2 50 6.1 SW 17 28 9 15 1009.2 1007.4 0.0
25/08:30pm 22.8 19.4 11.2 48 6.5 SW 20 30 11 16 1008.8 1007.0 0.0
25/08:00pm 22.9 20.4 11.0 47 6.7 WSW 15 26 8 14 1008.3 1006.5 0.0
25/07:30pm 23.7 19.9 11.1 45 7.1 WSW 22 33 12 18 1007.9 1006.1 0.0
25/07:00pm 25.3 21.1 11.1 41 8.1 WSW 24 35 13 19 1007.7 1005.9 0.0
25/06:30pm 26.6 22.7 10.7 37 9.1 WSW 22 30 12 16 1007.3 1005.4 0.0
25/06:00pm 27.6 23.8 11.2 36 9.5 WSW 22 35 12 19 1006.9 1005.0 0.0
25/05:30pm 28.3 23.7 10.9 34 10.0 SW 26 35 14 19 1006.8 1004.9 0.0
25/05:00pm 29.6 25.8 9.2 28 11.5 SW 19 33 10 18 1006.6 1004.7 0.0
25/04:30pm 30.4 26.2 7.6 24 12.6 SSW 19 32 10 17 1006.7 1004.8 0.0
25/04:00pm 29.6 25.3 6.9 24 12.3 S 19 30 10 16 1006.8 1004.9 0.0
25/03:30pm 30.2 26.5 8.0 25 12.3 SSW 17 28 9 15 1007.1 1005.2 0.0
25/03:00pm 29.1 24.4 7.7 26 11.8 SW 22 33 12 18 1007.4 1005.5 0.0
25/02:30pm 29.9 25.6 7.8 25 12.2 SSW 20 32 11 17 1007.9 1006.1 0.0
25/02:00pm 28.7 25.0 7.9 27 11.4 SSW 17 30 9 16 1008.2 1006.4 0.0
25/01:30pm 28.2 24.1 8.0 28 11.1 SSW 19 33 10 18 1008.5 1006.7 0.0
25/01:00pm 27.6 23.3 8.0 29 10.7 WSW 20 28 11 15 1008.9 1007.1 0.0
25/12:30pm 26.9 23.3 8.4 31 10.1 SW 17 32 9 17 1009.1 1007.3 0.0
25/12:00pm 26.8 23.3 8.7 32 10.0 SSW 17 30 9 16 1009.5 1007.7 0.0
25/11:30am 25.7 21.9 9.1 35 9.2 SSW 19 32 10 17 1010.0 1008.1 0.0
25/11:00am 25.3 21.3 9.2 36 8.9 S 20 28 11 15 1010.4 1008.5 0.0
25/10:30am 24.1 19.8 9.3 39 8.1 SW 22 33 12 18 1010.7 1008.8 0.0
25/10:00am 25.0 21.6 9.3 37 8.7 S 17 41 9 22 1010.7 1008.8 0.0
25/09:30am 23.0 19.3 9.4 42 7.4 SSW 19 30 10 16 1010.8 1008.9 0.0
25/09:00am 23.2 20.5 10.3 44 7.2 S 15 24 8 13 1010.8 1008.9 0.0
25/08:30am 22.1 19.9 10.9 49 6.3 S 13 22 7 12 1011.0 1009.2 0.0
25/08:00am 20.5 17.8 11.7 57 5.0 S 17 26 9 14 1011.1 1009.3 0.0
25/07:30am 19.9 18.5 13.4 66 3.8 SSW 13 17 7 9 1011.3 1009.5 0.0
25/07:00am 18.4 18.3 13.3 72 2.9 SW 6 9 3 5 1011.2 1009.4 0.0
25/06:30am 17.5 17.7 13.2 76 2.4 WSW 4 7 2 4 1011.0 1009.2 0.0
25/06:00am 17.1 17.4 13.4 79 2.1 SW 4 6 2 3 1010.9 1009.0 0.0
25/05:30am 16.5 16.8 13.4 82 1.8 SSW 4 6 2 3 1010.5 1008.6 0.0
25/05:00am 16.4 16.4 13.5 83 1.7 SSW 6 9 3 5 1010.4 1008.5 0.0
25/04:30am 16.4 16.2 13.5 83 1.7 SSW 7 11 4 6 1010.0 1008.1 0.0
25/04:00am 16.3 16.0 13.4 83 1.6 SSW 7 11 4 6 1009.9 1008.0 0.0
25/03:30am 16.4 16.1 13.3 82 1.8 SW 7 11 4 6 1009.8 1007.9 0.0
25/03:00am 16.5 16.1 13.0 80 2.0 SW 7 13 4 7 1009.8 1007.9 0.0
25/02:30am 16.8 16.1 13.1 79 2.1 SW 9 13 5 7 1009.8 1007.9 0.0
25/02:00am 17.0 16.6 13.1 78 2.2 SW 7 13 4 7 1009.7 1007.8 0.0
25/01:30am 17.1 16.0 13.0 77 2.3 SW 11 15 6 8 1009.7 1007.8 0.0
25/01:00am 17.3 16.5 12.8 75 2.5 SW 9 13 5 7 1009.9 1008.0 0.0
25/12:30am 17.6 16.7 12.7 73 2.8 SW 9 17 5 9 1010.0 1008.1 0.0
25/12:00am 18.1 17.2 12.5 70 3.2 SW 9 15 5 8 1010.1 1008.2 0.0
 
Date/Time
WST
Temp
°C
App
Temp
°C
Dew
Point
°C
Rel
Hum
%
Delta-T
°C
Wind Press
QNH
hPa
Press
MSL
hPa
Rain since
9am
mm
Dir  Spd
km/h
Gust
km/h
Spd
kts
Gust
kts
24/11:30pm 18.6 17.3 12.6 68 3.4 SW 11 19 6 10 1010.3 1008.4 0.0
24/11:00pm 19.0 16.9 12.5 66 3.7 SW 15 22 8 12 1010.4 1008.5 0.0
24/10:30pm 19.4 18.0 12.2 63 4.1 SW 11 19 6 10 1010.6 1008.7 0.0
24/10:00pm 20.0 17.9 12.3 61 4.4 SW 15 24 8 13 1010.4 1008.5 0.0
24/09:30pm 20.6 18.3 11.8 57 5.0 SW 15 22 8 12 1010.2 1008.3 0.0
24/09:00pm 21.2 18.9 10.4 50 6.0 SW 13 20 7 11 1009.9 1008.0 0.0
24/08:30pm 21.8 18.9 10.9 50 6.1 SW 17 26 9 14 1009.5 1007.7 0.0
24/08:00pm 22.4 19.3 10.2 46 6.8 SW 17 26 9 14 1009.3 1007.5 0.0
24/07:30pm 23.1 19.1 10.5 45 7.0 SW 22 33 12 18 1009.1 1007.3 0.0
24/07:00pm 24.1 20.7 11.4 45 7.2 SW 20 35 11 19 1008.7 1006.9 0.0
24/06:30pm 25.0 21.1 12.2 44 7.4 SW 24 35 13 19 1008.2 1006.4 0.0
24/06:00pm 25.5 22.2 12.7 45 7.5 SW 22 33 12 18 1007.7 1005.9 0.0
24/05:30pm 26.9 23.3 12.9 42 8.3 WSW 24 35 13 19 1007.2 1005.3 0.0
24/05:00pm 28.1 24.3 12.5 38 9.2 WSW 24 35 13 19 1007.0 1005.1 0.0
24/04:30pm 28.3 24.6 12.6 38 9.3 WSW 24 39 13 21 1006.7 1004.8 0.0
24/04:00pm 29.1 26.4 11.6 33 10.3 SW 17 30 9 16 1006.6 1004.7 0.0
24/03:30pm 29.1 25.6 12.1 35 10.0 SW 22 33 12 18 1006.7 1004.8 0.0
24/03:00pm 28.5 25.2 12.8 38 9.4 SW 22 33 12 18 1006.9 1005.0 0.0
24/02:30pm 29.4 25.9 12.3 34 10.1 WSW 22 39 12 21 1007.0 1005.1 0.0
24/02:00pm 29.1 25.2 12.1 35 10.0 WSW 24 37 13 20 1007.0 1005.1 0.0
24/01:30pm 29.4 25.7 11.5 33 10.5 SW 22 33 12 18 1007.0 1005.1 0.0
24/01:00pm 28.5 25.2 9.7 31 10.6 SW 17 30 9 16 1007.3 1005.4 0.0
24/12:30pm 28.4 24.7 9.6 31 10.6 SSW 19 33 10 18 1007.7 1005.9 0.0
24/12:00pm 27.8 22.9 10.1 33 10.1 SSW 26 37 14 20 1008.0 1006.2 0.0
24/11:30am 26.9 23.4 10.2 35 9.4 SW 19 32 10 17 1008.3 1006.5 0.0
24/11:00am 26.1 22.4 10.3 37 8.9 SSW 20 35 11 19 1008.6 1006.8 0.0
24/10:30am 24.4 20.9 11.0 43 7.6 SSW 20 30 11 16 1008.8 1007.0 0.0
24/10:00am 23.6 20.5 12.3 49 6.5 SSW 20 37 11 20 1009.0 1007.2 0.0
24/09:30am 21.7 19.8 13.1 58 5.0 SW 15 24 8 13 1009.2 1007.4 0.0
24/09:00am 20.9 19.4 13.1 61 4.5 SW 13 19 7 10 1009.3 1007.5 0.0
24/08:30am 20.5 19.0 13.0 62 4.3 SSW 13 19 7 10 1009.2 1007.4 0.0
24/08:00am 19.7 18.2 13.2 66 3.7 SW 13 17 7 9 1009.2 1007.4 0.0
24/07:30am 19.3 18.1 13.9 71 3.1 WSW 13 19 7 10 1009.0 1007.2 0.0
24/07:00am 18.5 17.4 14.2 76 2.5 WSW 13 19 7 10 1008.9 1007.1 0.0
24/06:30am 18.0 17.5 14.9 82 1.8 WSW 11 19 6 10 1008.4 1006.6 0.0
24/06:00am 17.7 18.3 15.3 86 1.4 WSW 6 11 3 6 1008.2 1006.4 0.0
24/05:30am 17.3 18.5 16.0 92 0.8 W 4 4 2 2 1008.1 1006.3 0.0
24/05:00am 16.6 18.7 16.3 98 0.2 CALM 0 4 0 2 1007.8 1006.0 0.0
24/04:30am 16.4 18.1 16.1 98 0.2 W 2 4 1 2 1007.5 1005.6 0.0
24/04:00am 16.7 18.0 16.1 96 0.4 W 4 7 2 4 1007.5 1005.6 0.0
24/03:30am 17.3 18.4 16.5 95 0.5 SW 6 9 3 5 1007.3 1005.4 0.0
24/03:00am 17.5 18.4 16.5 94 0.6 SW 7 13 4 7 1007.1 1005.2 0.0
24/02:30am 17.8 18.4 16.8 94 0.6 SW 9 13 5 7 1007.1 1005.2 0.0
24/02:00am 18.1 18.7 16.8 92 0.8 WSW 9 15 5 8 1007.1 1005.2 0.0
24/01:30am 18.4 19.2 16.4 88 1.2 WSW 7 13 4 7 1007.0 1005.1 0.0
24/01:00am 18.8 18.8 16.2 85 1.6 SW 11 19 6 10 1006.9 1005.0 0.0
24/12:30am 19.1 19.7 15.8 81 2.0 SW 7 13 4 7 1006.8 1004.9 0.0
24/12:00am 19.5 18.9 15.6 78 2.3 SW 13 20 7 11 1007.0 1005.1 0.0
 
Date/Time
WST
Temp
°C
App
Temp
°C
Dew
Point
°C
Rel
Hum
%
Delta-T
°C
Wind Press
QNH
hPa
Press
MSL
hPa
Rain since
9am
mm
Dir  Spd
km/h
Gust
km/h
Spd
kts
Gust
kts
23/11:30pm 19.9 19.2 15.3 75 2.7 SW 13 19 7 10 1007.0 1005.1 0.0
23/11:00pm 20.3 18.3 14.9 71 3.2 SW 19 26 10 14 1006.9 1005.0 0.0
23/10:30pm 20.6 18.4 14.9 70 3.4 SW 20 33 11 18 1007.0 1005.1 0.0
23/10:00pm 21.1 18.9 15.0 68 3.7 SW 20 32 11 17 1006.9 1005.0 0.0
23/09:30pm 21.7 19.1 14.8 65 4.1 SW 22 35 12 19 1006.9 1005.0 0.0
23/09:00pm 22.1 19.5 15.0 64 4.3 SW 22 33 12 18 1006.6 1004.7 0.0
23/08:30pm 22.4 20.9 15.3 64 4.3 SW 17 30 9 16 1006.2 1004.3 0.0
23/08:00pm 22.8 20.5 15.6 64 4.4 SW 22 35 12 19 1005.9 1004.0 0.0
23/07:30pm 23.6 20.9 15.6 61 4.9 SW 24 39 13 21 1005.5 1003.7 0.0
23/07:00pm 25.0 22.4 15.9 57 5.6 SW 24 35 13 19 1005.1 1003.3 0.0
23/06:30pm 26.8 23.7 15.5 50 7.0 WSW 26 37 14 20 1004.7 1002.9 0.0
23/06:00pm 28.5 25.0 15.4 45 8.1 WSW 28 41 15 22 1004.0 1002.1 0.0
23/05:30pm 30.1 27.8 14.6 39 9.5 WSW 20 32 11 17 1003.6 1001.7 0.0
23/05:00pm 30.6 28.4 14.3 37 10.0 WSW 19 30 10 16 1003.5 1001.6 0.0
23/04:30pm 30.9 29.1 14.5 37 10.1 SW 17 32 9 17 1003.2 1001.3 0.0
23/04:00pm 31.2 28.6 14.8 37 10.2 WSW 22 33 12 18 1003.3 1001.4 0.0
23/03:30pm 31.7 29.6 15.2 36 10.3 WSW 20 32 11 17 1003.2 1001.3 0.0
23/03:00pm 32.1 30.0 15.1 35 10.6 SW 20 39 11 21 1003.3 1001.4 0.0
23/02:30pm 32.7 30.6 14.8 34 11.1 SW 19 30 10 16 1003.3 1001.4 0.0
23/02:00pm 31.6 29.3 14.7 36 10.5 WSW 20 32 11 17 1003.2 1001.3 0.0
23/01:30pm 32.4 29.8 15.0 35 10.8 WSW 22 39 12 21 1003.2 1001.3 0.0
23/01:00pm 33.1 30.8 14.7 33 11.5 WSW 20 33 11 18 1003.2 1001.3 0.0
23/12:30pm 32.9 30.9 14.0 32 11.6 WSW 17 32 9 17 1003.2 1001.3 0.0
23/12:00pm 32.6 31.1 14.2 32 11.4 SW 15 20 8 11 1003.3 1001.4 0.0
23/11:30am 32.1 30.7 13.3 31 11.4 WSW 13 20 7 11 1003.5 1001.6 0.0
23/11:00am 30.5 29.0 14.2 37 10.0 WSW 15 24 8 13 1003.9 1002.0 0.0
23/10:30am 29.3 28.1 15.1 42 8.8 W 15 24 8 13 1004.0 1002.1 0.0
23/10:00am 28.2 26.6 16.1 47 7.6 W 19 26 10 14 1004.4 1002.6 0.0
23/09:30am 27.5 26.6 16.8 52 6.7 W 17 26 9 14 1004.6 1002.8 0.0
23/09:00am 26.0 24.7 16.8 57 5.8 WSW 19 26 10 14 1004.6 1002.8 0.0
23/08:30am 24.5 23.0 17.7 66 4.3 W 22 30 12 16 1004.7 1002.9 0.0
23/08:00am 23.6 23.0 18.5 73 3.3 WSW 19 28 10 15 1004.7 1002.9 0.0
23/07:30am 22.6 21.4 19.2 81 2.2 WSW 24 33 13 18 1004.4 1002.6 0.0
23/07:00am 21.4 20.8 19.7 90 1.1 WSW 22 33 12 18 1004.2 1002.3 0.0
23/06:30am 20.2 19.8 20.2 100 0.0 WSW 22 35 12 19 1003.9 1002.0 0.0
23/06:00am 19.9 19.5 18.9 94 0.6 W 19 32 10 17 1003.5 1001.6 0.0
23/05:30am 19.8 19.0 17.2 85 1.6 W 17 22 9 12 1003.1 1001.2 0.0
23/05:00am 20.1 19.6 16.9 82 2.0 W 15 22 8 12 1002.5 1000.6 0.0
23/04:30am 20.2 20.2 16.2 78 2.4 W 11 17 6 9 1002.2 1000.3 0.0
23/04:00am 20.5 21.2 16.1 76 2.7 W 7 11 4 6 1001.7 999.9 0.0
23/03:30am 20.5 21.1 16.7 79 2.3 W 9 15 5 8 1001.7 999.9 0.0
23/03:00am 20.8 21.1 17.0 79 2.4 W 11 19 6 10 1002.0 1000.1 0.0
23/02:30am 21.1 21.2 17.5 80 2.2 W 13 17 7 9 1002.2 1000.3 0.0
23/02:00am 21.6 22.3 18.0 80 2.3 WSW 11 19 6 10 1002.4 1000.5 0.0
23/01:30am 22.0 22.7 18.0 78 2.5 WSW 11 17 6 9 1002.7 1000.8 0.0
23/01:00am 22.0 22.8 19.0 83 1.9 W 13 17 7 9 1002.7 1000.8 0.0
23/12:30am 22.3 22.9 19.5 84 1.8 W 15 19 8 10 1003.1 1001.2 0.0
23/12:00am 22.7 23.3 19.5 82 2.1 W 15 20 8 11 1003.4 1001.5 0.0
 
Date/Time
WST
Temp
°C
App
Temp
°C
Dew
Point
°C
Rel
Hum
%
Delta-T
°C
Wind Press
QNH
hPa
Press
MSL
hPa
Rain since
9am
mm
Dir  Spd
km/h
Gust
km/h
Spd
kts
Gust
kts
22/11:30pm 23.3 24.0 18.8 76 2.9 W 13 17 7 9 1003.6 1001.7 0.0
22/11:00pm 23.8 23.8 18.0 70 3.7 W 15 20 8 11 1003.6 1001.7 0.0
22/10:30pm 24.6 23.8 17.1 63 4.7 W 17 22 9 12 1003.5 1001.6 0.0

Other formats

Comma delimited format used in spreadsheet applications
http://www.bom.gov.au/fwo/IDW60801/IDW60801.94417.axf

JavaScript Object Notation format (JSON) in row-major order
http://www.bom.gov.au/fwo/IDW60801/IDW60801.94417.json

Data quality

Most of these data are generated automatically and are frequently updated. Quality checks on data are not normally performed. It is possible for incorrect values to appear. Refer to information at About Latest Weather Observations and please check the disclaimer before using these data.